sensor_id;sensor_type;location;lat;lon;timestamp;temperature;humidity
666;DHT22;315;48.738;9.126;2023-01-24T00:01:04;3.00;99.90
666;DHT22;315;48.738;9.126;2023-01-24T00:03:30;3.00;99.90
666;DHT22;315;48.738;9.126;2023-01-24T00:05:55;3.00;99.90
666;DHT22;315;48.738;9.126;2023-01-24T00:08:21;3.10;99.90
666;DHT22;315;48.738;9.126;2023-01-24T00:11:01;3.10;99.90
666;DHT22;315;48.738;9.126;2023-01-24T00:13:27;3.10;99.90
666;DHT22;315;48.738;9.126;2023-01-24T00:16:08;3.00;99.90
666;DHT22;315;48.738;9.126;2023-01-24T00:18:35;3.10;99.90
666;DHT22;315;48.738;9.126;2023-01-24T00:21:06;3.00;99.90
666;DHT22;315;48.738;9.126;2023-01-24T00:23:35;3.00;99.90
666;DHT22;315;48.738;9.126;2023-01-24T00:26:00;3.00;99.90
666;DHT22;315;48.738;9.126;2023-01-24T00:28:26;3.00;99.90
666;DHT22;315;48.738;9.126;2023-01-24T00:30:51;3.00;99.90
666;DHT22;315;48.738;9.126;2023-01-24T00:33:17;3.00;99.90
666;DHT22;315;48.738;9.126;2023-01-24T00:35:42;3.10;99.90
666;DHT22;315;48.738;9.126;2023-01-24T00:38:08;3.00;99.90
666;DHT22;315;48.738;9.126;2023-01-24T00:40:33;3.00;99.90
666;DHT22;315;48.738;9.126;2023-01-24T00:42:59;2.90;99.90
666;DHT22;315;48.738;9.126;2023-01-24T00:45:24;2.90;99.90
666;DHT22;315;48.738;9.126;2023-01-24T00:47:50;2.90;99.90
666;DHT22;315;48.738;9.126;2023-01-24T00:50:15;2.80;99.90
666;DHT22;315;48.738;9.126;2023-01-24T00:52:41;2.90;99.90
666;DHT22;315;48.738;9.126;2023-01-24T00:55:07;2.90;99.90
666;DHT22;315;48.738;9.126;2023-01-24T00:57:32;2.90;99.90
666;DHT22;315;48.738;9.126;2023-01-24T00:59:58;2.90;99.90
666;DHT22;315;48.738;9.126;2023-01-24T01:02:23;2.90;99.90
666;DHT22;315;48.738;9.126;2023-01-24T01:04:49;2.90;99.90
666;DHT22;315;48.738;9.126;2023-01-24T01:07:14;2.80;99.90
666;DHT22;315;48.738;9.126;2023-01-24T01:09:40;2.80;99.90
666;DHT22;315;48.738;9.126;2023-01-24T01:12:05;2.80;99.90
666;DHT22;315;48.738;9.126;2023-01-24T01:14:31;2.90;99.90
666;DHT22;315;48.738;9.126;2023-01-24T01:16:56;2.80;99.90
666;DHT22;315;48.738;9.126;2023-01-24T01:19:22;2.80;99.90
666;DHT22;315;48.738;9.126;2023-01-24T01:21:47;2.80;99.90
666;DHT22;315;48.738;9.126;2023-01-24T01:24:15;2.80;99.90
666;DHT22;315;48.738;9.126;2023-01-24T01:26:40;2.80;99.90
666;DHT22;315;48.738;9.126;2023-01-24T01:29:06;2.90;99.90
666;DHT22;315;48.738;9.126;2023-01-24T01:31:31;2.80;99.90
666;DHT22;315;48.738;9.126;2023-01-24T01:33:57;2.80;99.90
666;DHT22;315;48.738;9.126;2023-01-24T01:36:23;2.80;99.90
666;DHT22;315;48.738;9.126;2023-01-24T01:38:48;2.80;99.90
666;DHT22;315;48.738;9.126;2023-01-24T01:41:14;2.80;99.90
666;DHT22;315;48.738;9.126;2023-01-24T01:43:40;2.80;99.90
666;DHT22;315;48.738;9.126;2023-01-24T01:46:29;2.80;99.90
666;DHT22;315;48.738;9.126;2023-01-24T01:48:57;2.80;99.90
666;DHT22;315;48.738;9.126;2023-01-24T01:51:27;2.80;99.90
666;DHT22;315;48.738;9.126;2023-01-24T01:54:21;2.80;99.90
666;DHT22;315;48.738;9.126;2023-01-24T01:56:59;2.90;99.90
666;DHT22;315;48.738;9.126;2023-01-24T01:59:34;2.90;99.90
666;DHT22;315;48.738;9.126;2023-01-24T02:02:01;2.80;99.90
666;DHT22;315;48.738;9.126;2023-01-24T02:04:33;2.80;99.90
666;DHT22;315;48.738;9.126;2023-01-24T02:07:14;2.80;99.90
666;DHT22;315;48.738;9.126;2023-01-24T02:09:44;2.80;99.90
666;DHT22;315;48.738;9.126;2023-01-24T02:12:15;2.80;99.90
666;DHT22;315;48.738;9.126;2023-01-24T02:14:43;2.80;99.90
666;DHT22;315;48.738;9.126;2023-01-24T02:17:30;2.80;99.90
666;DHT22;315;48.738;9.126;2023-01-24T02:23:00;2.80;99.90
666;DHT22;315;48.738;9.126;2023-01-24T02:28:33;2.90;99.90
666;DHT22;315;48.738;9.126;2023-01-24T02:30:59;2.80;99.90
666;DHT22;315;48.738;9.126;2023-01-24T02:33:25;2.80;99.90
666;DHT22;315;48.738;9.126;2023-01-24T02:36:20;2.80;99.90
666;DHT22;315;48.738;9.126;2023-01-24T02:38:52;2.80;99.90
666;DHT22;315;48.738;9.126;2023-01-24T02:41:22;2.80;99.90
666;DHT22;315;48.738;9.126;2023-01-24T02:43:52;2.80;99.90
666;DHT22;315;48.738;9.126;2023-01-24T02:46:20;2.80;99.90
666;DHT22;315;48.738;9.126;2023-01-24T02:48:45;2.80;99.90
666;DHT22;315;48.738;9.126;2023-01-24T02:51:11;2.80;99.90
666;DHT22;315;48.738;9.126;2023-01-24T02:53:55;2.80;99.90
666;DHT22;315;48.738;9.126;2023-01-24T02:56:20;2.90;99.90
666;DHT22;315;48.738;9.126;2023-01-24T02:59:04;2.90;99.90
666;DHT22;315;48.738;9.126;2023-01-24T03:01:30;2.90;99.90
666;DHT22;315;48.738;9.126;2023-01-24T03:03:57;2.90;99.90
666;DHT22;315;48.738;9.126;2023-01-24T03:06:23;2.80;99.90
666;DHT22;315;48.738;9.126;2023-01-24T03:08:48;2.80;99.90
666;DHT22;315;48.738;9.126;2023-01-24T03:11:14;2.80;99.90
666;DHT22;315;48.738;9.126;2023-01-24T03:13:39;2.80;99.90
666;DHT22;315;48.738;9.126;2023-01-24T03:16:23;2.80;99.90
666;DHT22;315;48.738;9.126;2023-01-24T03:19:07;2.90;99.90
666;DHT22;315;48.738;9.126;2023-01-24T03:21:52;2.80;99.90
666;DHT22;315;48.738;9.126;2023-01-24T03:24:36;2.80;99.90
666;DHT22;315;48.738;9.126;2023-01-24T03:27:21;2.80;99.90
666;DHT22;315;48.738;9.126;2023-01-24T03:30:06;2.80;99.90
666;DHT22;315;48.738;9.126;2023-01-24T03:32:51;2.80;99.90
666;DHT22;315;48.738;9.126;2023-01-24T03:35:35;2.80;99.90
666;DHT22;315;48.738;9.126;2023-01-24T03:38:01;2.80;99.90
666;DHT22;315;48.738;9.126;2023-01-24T03:40:45;2.80;99.90
666;DHT22;315;48.738;9.126;2023-01-24T03:43:11;2.80;99.90
666;DHT22;315;48.738;9.126;2023-01-24T03:45:38;2.80;99.90
666;DHT22;315;48.738;9.126;2023-01-24T03:48:06;2.80;99.90
666;DHT22;315;48.738;9.126;2023-01-24T03:50:40;2.80;99.90
666;DHT22;315;48.738;9.126;2023-01-24T03:53:28;2.90;99.90
666;DHT22;315;48.738;9.126;2023-01-24T03:55:59;2.90;99.90
666;DHT22;315;48.738;9.126;2023-01-24T03:58:26;2.90;99.90
666;DHT22;315;48.738;9.126;2023-01-24T04:00:52;2.90;99.90
666;DHT22;315;48.738;9.126;2023-01-24T04:03:18;3.00;99.90
666;DHT22;315;48.738;9.126;2023-01-24T04:05:46;3.00;99.90
666;DHT22;315;48.738;9.126;2023-01-24T04:08:12;2.90;99.90
666;DHT22;315;48.738;9.126;2023-01-24T04:10:38;2.90;99.90
666;DHT22;315;48.738;9.126;2023-01-24T04:13:03;2.90;99.90
666;DHT22;315;48.738;9.126;2023-01-24T04:15:31;2.90;99.90
666;DHT22;315;48.738;9.126;2023-01-24T04:17:58;2.80;99.90
666;DHT22;315;48.738;9.126;2023-01-24T04:20:26;2.90;99.90
666;DHT22;315;48.738;9.126;2023-01-24T04:22:52;2.90;99.90
666;DHT22;315;48.738;9.126;2023-01-24T04:25:17;2.80;99.90
666;DHT22;315;48.738;9.126;2023-01-24T04:27:43;2.80;99.90
666;DHT22;315;48.738;9.126;2023-01-24T04:30:11;2.80;99.90
666;DHT22;315;48.738;9.126;2023-01-24T04:32:37;2.80;99.90
666;DHT22;315;48.738;9.126;2023-01-24T04:35:03;2.80;99.90
666;DHT22;315;48.738;9.126;2023-01-24T04:37:30;2.90;99.90
666;DHT22;315;48.738;9.126;2023-01-24T04:39:55;2.90;99.90
666;DHT22;315;48.738;9.126;2023-01-24T04:42:21;2.90;99.90
666;DHT22;315;48.738;9.126;2023-01-24T04:44:47;2.80;99.90
666;DHT22;315;48.738;9.126;2023-01-24T04:47:12;2.90;99.90
666;DHT22;315;48.738;9.126;2023-01-24T04:49:38;2.90;99.90
666;DHT22;315;48.738;9.126;2023-01-24T04:52:04;2.80;99.90
666;DHT22;315;48.738;9.126;2023-01-24T04:54:29;2.90;99.90
666;DHT22;315;48.738;9.126;2023-01-24T04:56:55;2.80;99.90
666;DHT22;315;48.738;9.126;2023-01-24T04:59:20;2.80;99.90
666;DHT22;315;48.738;9.126;2023-01-24T05:01:46;2.80;99.90
666;DHT22;315;48.738;9.126;2023-01-24T05:04:11;2.90;99.90
666;DHT22;315;48.738;9.126;2023-01-24T05:06:37;2.90;99.90
666;DHT22;315;48.738;9.126;2023-01-24T05:09:03;2.90;99.90
666;DHT22;315;48.738;9.126;2023-01-24T05:11:28;2.90;99.90
666;DHT22;315;48.738;9.126;2023-01-24T05:13:54;2.90;99.90
666;DHT22;315;48.738;9.126;2023-01-24T05:16:20;2.90;99.90
666;DHT22;315;48.738;9.126;2023-01-24T05:18:45;2.90;99.90
666;DHT22;315;48.738;9.126;2023-01-24T05:21:13;2.90;99.90
666;DHT22;315;48.738;9.126;2023-01-24T05:23:39;3.00;99.90
666;DHT22;315;48.738;9.126;2023-01-24T05:26:05;2.90;99.90
666;DHT22;315;48.738;9.126;2023-01-24T05:28:31;2.90;99.90
666;DHT22;315;48.738;9.126;2023-01-24T05:31:04;3.00;99.90
666;DHT22;315;48.738;9.126;2023-01-24T05:33:31;2.90;99.90
666;DHT22;315;48.738;9.126;2023-01-24T05:36:02;2.90;99.90
666;DHT22;315;48.738;9.126;2023-01-24T05:38:28;2.90;99.90
666;DHT22;315;48.738;9.126;2023-01-24T05:40:58;2.90;99.90
666;DHT22;315;48.738;9.126;2023-01-24T05:43:23;2.90;99.90
666;DHT22;315;48.738;9.126;2023-01-24T05:45:49;3.00;99.90
666;DHT22;315;48.738;9.126;2023-01-24T05:48:14;2.90;99.90
666;DHT22;315;48.738;9.126;2023-01-24T05:50:40;2.90;99.90
666;DHT22;315;48.738;9.126;2023-01-24T05:53:05;2.80;99.90
666;DHT22;315;48.738;9.126;2023-01-24T05:55:31;2.80;99.90
666;DHT22;315;48.738;9.126;2023-01-24T05:57:58;2.80;99.90
666;DHT22;315;48.738;9.126;2023-01-24T06:00:25;2.80;99.90
666;DHT22;315;48.738;9.126;2023-01-24T06:02:50;2.80;99.90
666;DHT22;315;48.738;9.126;2023-01-24T06:05:16;2.80;99.90
666;DHT22;315;48.738;9.126;2023-01-24T06:07:42;2.70;99.90
666;DHT22;315;48.738;9.126;2023-01-24T06:10:08;2.80;99.90
666;DHT22;315;48.738;9.126;2023-01-24T06:12:33;2.80;99.90
666;DHT22;315;48.738;9.126;2023-01-24T06:14:59;2.80;99.90
666;DHT22;315;48.738;9.126;2023-01-24T06:17:24;2.80;99.90
666;DHT22;315;48.738;9.126;2023-01-24T06:19:50;2.90;99.90
666;DHT22;315;48.738;9.126;2023-01-24T06:22:22;2.80;99.90
666;DHT22;315;48.738;9.126;2023-01-24T06:24:48;2.80;99.90
666;DHT22;315;48.738;9.126;2023-01-24T06:27:14;2.80;99.90
666;DHT22;315;48.738;9.126;2023-01-24T06:29:40;2.70;99.90
666;DHT22;315;48.738;9.126;2023-01-24T06:40:30;2.80;99.90
666;DHT22;315;48.738;9.126;2023-01-24T06:42:56;2.70;99.90
666;DHT22;315;48.738;9.126;2023-01-24T06:45:22;2.70;99.90
666;DHT22;315;48.738;9.126;2023-01-24T06:47:48;2.70;99.90
666;DHT22;315;48.738;9.126;2023-01-24T06:50:18;2.80;99.90
666;DHT22;315;48.738;9.126;2023-01-24T06:52:45;2.80;99.90
666;DHT22;315;48.738;9.126;2023-01-24T06:55:11;2.80;99.90
666;DHT22;315;48.738;9.126;2023-01-24T06:57:37;2.80;99.90
666;DHT22;315;48.738;9.126;2023-01-24T07:00:04;2.80;99.90
666;DHT22;315;48.738;9.126;2023-01-24T07:02:30;2.80;99.90
666;DHT22;315;48.738;9.126;2023-01-24T07:04:55;2.80;99.90
666;DHT22;315;48.738;9.126;2023-01-24T07:07:21;2.80;99.90
666;DHT22;315;48.738;9.126;2023-01-24T07:09:46;2.80;99.90
666;DHT22;315;48.738;9.126;2023-01-24T07:12:12;2.90;99.90
666;DHT22;315;48.738;9.126;2023-01-24T07:14:37;2.90;99.90
666;DHT22;315;48.738;9.126;2023-01-24T07:17:03;2.90;99.90
666;DHT22;315;48.738;9.126;2023-01-24T07:19:29;3.00;99.90
666;DHT22;315;48.738;9.126;2023-01-24T07:21:55;2.90;99.90
666;DHT22;315;48.738;9.126;2023-01-24T07:24:24;2.90;99.90
666;DHT22;315;48.738;9.126;2023-01-24T07:26:51;2.90;99.90
666;DHT22;315;48.738;9.126;2023-01-24T07:29:17;2.90;99.90
666;DHT22;315;48.738;9.126;2023-01-24T07:31:43;2.90;99.90
666;DHT22;315;48.738;9.126;2023-01-24T07:34:09;3.00;99.90
666;DHT22;315;48.738;9.126;2023-01-24T07:36:35;3.00;99.90
666;DHT22;315;48.738;9.126;2023-01-24T07:39:00;3.00;99.90
666;DHT22;315;48.738;9.126;2023-01-24T07:41:26;3.00;99.90
666;DHT22;315;48.738;9.126;2023-01-24T07:43:51;3.10;99.90
666;DHT22;315;48.738;9.126;2023-01-24T07:46:17;3.10;99.90
666;DHT22;315;48.738;9.126;2023-01-24T07:48:43;3.10;99.90
666;DHT22;315;48.738;9.126;2023-01-24T07:51:09;3.10;99.90
666;DHT22;315;48.738;9.126;2023-01-24T07:53:34;3.10;99.90
666;DHT22;315;48.738;9.126;2023-01-24T07:56:01;3.00;99.90
666;DHT22;315;48.738;9.126;2023-01-24T07:58:27;3.10;99.90
666;DHT22;315;48.738;9.126;2023-01-24T08:00:52;3.10;99.90
666;DHT22;315;48.738;9.126;2023-01-24T08:03:18;3.10;99.90
666;DHT22;315;48.738;9.126;2023-01-24T08:05:44;3.20;99.90
666;DHT22;315;48.738;9.126;2023-01-24T08:08:10;3.20;99.90
666;DHT22;315;48.738;9.126;2023-01-24T08:10:35;3.10;99.90
666;DHT22;315;48.738;9.126;2023-01-24T08:13:01;3.00;99.90
666;DHT22;315;48.738;9.126;2023-01-24T08:15:26;3.00;99.90
666;DHT22;315;48.738;9.126;2023-01-24T08:17:52;3.00;99.90
666;DHT22;315;48.738;9.126;2023-01-24T08:20:18;3.10;99.90
666;DHT22;315;48.738;9.126;2023-01-24T08:22:43;3.10;99.90
666;DHT22;315;48.738;9.126;2023-01-24T08:25:09;3.10;99.90
666;DHT22;315;48.738;9.126;2023-01-24T08:27:35;3.20;99.90
666;DHT22;315;48.738;9.126;2023-01-24T08:30:05;3.10;99.90
666;DHT22;315;48.738;9.126;2023-01-24T08:32:30;3.10;99.90
666;DHT22;315;48.738;9.126;2023-01-24T08:34:57;3.20;99.90
666;DHT22;315;48.738;9.126;2023-01-24T08:37:22;3.20;99.90
666;DHT22;315;48.738;9.126;2023-01-24T08:39:48;3.20;99.90
666;DHT22;315;48.738;9.126;2023-01-24T08:42:14;3.20;99.90
666;DHT22;315;48.738;9.126;2023-01-24T08:44:40;3.30;99.90
666;DHT22;315;48.738;9.126;2023-01-24T08:47:05;3.30;99.90
666;DHT22;315;48.738;9.126;2023-01-24T08:49:31;3.30;99.90
666;DHT22;315;48.738;9.126;2023-01-24T08:51:56;3.40;99.90
666;DHT22;315;48.738;9.126;2023-01-24T08:54:27;3.40;99.90
666;DHT22;315;48.738;9.126;2023-01-24T08:56:53;3.40;99.90
666;DHT22;315;48.738;9.126;2023-01-24T08:59:18;3.40;99.90
666;DHT22;315;48.738;9.126;2023-01-24T09:01:44;3.40;99.90
666;DHT22;315;48.738;9.126;2023-01-24T09:04:11;3.40;99.90
666;DHT22;315;48.738;9.126;2023-01-24T09:06:37;3.40;99.90
666;DHT22;315;48.738;9.126;2023-01-24T09:09:03;3.40;99.90
666;DHT22;315;48.738;9.126;2023-01-24T09:11:29;3.50;99.90
666;DHT22;315;48.738;9.126;2023-01-24T09:13:55;3.60;99.90
666;DHT22;315;48.738;9.126;2023-01-24T09:16:20;3.60;99.90
666;DHT22;315;48.738;9.126;2023-01-24T09:18:46;3.80;99.90
666;DHT22;315;48.738;9.126;2023-01-24T09:21:11;3.80;99.90
666;DHT22;315;48.738;9.126;2023-01-24T09:23:37;3.90;99.90
666;DHT22;315;48.738;9.126;2023-01-24T09:26:03;3.90;99.90
666;DHT22;315;48.738;9.126;2023-01-24T09:28:28;3.90;99.90
666;DHT22;315;48.738;9.126;2023-01-24T09:30:54;3.80;99.90
666;DHT22;315;48.738;9.126;2023-01-24T09:33:19;3.80;99.90
666;DHT22;315;48.738;9.126;2023-01-24T09:35:59;3.80;99.90
666;DHT22;315;48.738;9.126;2023-01-24T09:38:27;3.80;99.90
666;DHT22;315;48.738;9.126;2023-01-24T09:43:52;3.80;99.90
666;DHT22;315;48.738;9.126;2023-01-24T09:49:03;3.80;99.90
666;DHT22;315;48.738;9.126;2023-01-24T09:51:31;3.80;99.90
666;DHT22;315;48.738;9.126;2023-01-24T09:54:01;3.90;99.90
666;DHT22;315;48.738;9.126;2023-01-24T09:56:35;3.90;99.90
666;DHT22;315;48.738;9.126;2023-01-24T10:01:41;3.90;99.90
666;DHT22;315;48.738;9.126;2023-01-24T10:04:26;3.80;99.90
666;DHT22;315;48.738;9.126;2023-01-24T10:09:57;3.90;99.90
666;DHT22;315;48.738;9.126;2023-01-24T10:12:53;3.90;99.90
666;DHT22;315;48.738;9.126;2023-01-24T10:16:12;3.80;99.90
666;DHT22;315;48.738;9.126;2023-01-24T10:22:35;3.90;99.90
666;DHT22;315;48.738;9.126;2023-01-24T10:24:38;3.80;99.90
666;DHT22;315;48.738;9.126;2023-01-24T10:27:18;3.80;99.90
666;DHT22;315;48.738;9.126;2023-01-24T10:29:44;3.90;99.90
666;DHT22;315;48.738;9.126;2023-01-24T10:32:20;3.90;99.90
666;DHT22;315;48.738;9.126;2023-01-24T10:34:58;4.00;99.90
666;DHT22;315;48.738;9.126;2023-01-24T10:37:27;3.90;99.90
666;DHT22;315;48.738;9.126;2023-01-24T10:39:53;3.90;99.90
666;DHT22;315;48.738;9.126;2023-01-24T10:42:24;3.80;99.90
666;DHT22;315;48.738;9.126;2023-01-24T10:44:51;3.90;99.90
666;DHT22;315;48.738;9.126;2023-01-24T10:50:11;3.80;99.90
666;DHT22;315;48.738;9.126;2023-01-24T10:52:36;3.90;99.90
666;DHT22;315;48.738;9.126;2023-01-24T10:55:03;4.00;99.90
666;DHT22;315;48.738;9.126;2023-01-24T10:57:51;4.10;99.90
666;DHT22;315;48.738;9.126;2023-01-24T11:00:56;4.10;99.90
666;DHT22;315;48.738;9.126;2023-01-24T11:03:20;4.20;99.90
666;DHT22;315;48.738;9.126;2023-01-24T11:05:50;4.10;99.90
666;DHT22;315;48.738;9.126;2023-01-24T11:08:45;4.10;99.90
666;DHT22;315;48.738;9.126;2023-01-24T11:11:22;4.20;99.90
666;DHT22;315;48.738;9.126;2023-01-24T11:13:54;4.30;99.90
666;DHT22;315;48.738;9.126;2023-01-24T11:16:21;4.30;99.90
666;DHT22;315;48.738;9.126;2023-01-24T11:18:52;4.30;99.90
666;DHT22;315;48.738;9.126;2023-01-24T11:21:20;4.40;99.90
666;DHT22;315;48.738;9.126;2023-01-24T11:24:19;4.40;99.90
666;DHT22;315;48.738;9.126;2023-01-24T11:27:01;4.30;99.90
666;DHT22;315;48.738;9.126;2023-01-24T11:29:27;4.40;99.90
666;DHT22;315;48.738;9.126;2023-01-24T11:31:59;4.50;99.90
666;DHT22;315;48.738;9.126;2023-01-24T11:40:21;4.30;99.90
666;DHT22;315;48.738;9.126;2023-01-24T11:43:20;4.20;99.90
666;DHT22;315;48.738;9.126;2023-01-24T11:51:51;4.30;99.90
666;DHT22;315;48.738;9.126;2023-01-24T11:54:42;4.50;99.90
666;DHT22;315;48.738;9.126;2023-01-24T11:57:19;4.50;99.90
666;DHT22;315;48.738;9.126;2023-01-24T11:59:59;4.50;99.90
666;DHT22;315;48.738;9.126;2023-01-24T12:08:17;4.80;99.90
666;DHT22;315;48.738;9.126;2023-01-24T12:11:00;4.60;99.90
666;DHT22;315;48.738;9.126;2023-01-24T12:16:41;4.70;99.90
666;DHT22;315;48.738;9.126;2023-01-24T12:22:17;4.70;99.90
666;DHT22;315;48.738;9.126;2023-01-24T12:24:48;4.70;99.90
666;DHT22;315;48.738;9.126;2023-01-24T12:27:19;4.70;99.90
666;DHT22;315;48.738;9.126;2023-01-24T12:29:51;4.70;99.90
666;DHT22;315;48.738;9.126;2023-01-24T12:32:46;4.70;99.90
666;DHT22;315;48.738;9.126;2023-01-24T12:35:22;4.60;99.90
666;DHT22;315;48.738;9.126;2023-01-24T12:38:05;4.60;99.90
666;DHT22;315;48.738;9.126;2023-01-24T12:43:24;4.60;99.90
666;DHT22;315;48.738;9.126;2023-01-24T12:51:13;4.60;99.90
666;DHT22;315;48.738;9.126;2023-01-24T12:53:56;4.50;99.90
666;DHT22;315;48.738;9.126;2023-01-24T12:56:42;4.40;99.90
666;DHT22;315;48.738;9.126;2023-01-24T12:59:11;4.50;99.90
666;DHT22;315;48.738;9.126;2023-01-24T13:04:47;4.50;99.90
666;DHT22;315;48.738;9.126;2023-01-24T13:07:30;4.50;99.90
666;DHT22;315;48.738;9.126;2023-01-24T13:12:54;4.60;99.90
666;DHT22;315;48.738;9.126;2023-01-24T13:15:35;4.60;99.90
666;DHT22;315;48.738;9.126;2023-01-24T13:29:09;4.50;99.90
666;DHT22;315;48.738;9.126;2023-01-24T13:32:07;4.50;99.90
666;DHT22;315;48.738;9.126;2023-01-24T13:34:40;4.50;99.90
666;DHT22;315;48.738;9.126;2023-01-24T13:37:28;4.40;99.90
666;DHT22;315;48.738;9.126;2023-01-24T13:40:06;4.30;99.90
666;DHT22;315;48.738;9.126;2023-01-24T13:42:43;4.30;99.90
666;DHT22;315;48.738;9.126;2023-01-24T13:47:51;4.30;99.90
666;DHT22;315;48.738;9.126;2023-01-24T13:50:18;4.30;99.90
666;DHT22;315;48.738;9.126;2023-01-24T13:52:46;4.30;99.90
666;DHT22;315;48.738;9.126;2023-01-24T14:00:29;4.20;99.90
666;DHT22;315;48.738;9.126;2023-01-24T14:21:48;4.10;99.90
666;DHT22;315;48.738;9.126;2023-01-24T14:27:36;4.00;99.90
666;DHT22;315;48.738;9.126;2023-01-24T14:35:25;3.80;99.90
666;DHT22;315;48.738;9.126;2023-01-24T14:37:52;3.80;99.90
666;DHT22;315;48.738;9.126;2023-01-24T14:40:24;3.80;99.90
666;DHT22;315;48.738;9.126;2023-01-24T14:42:57;3.80;99.90
666;DHT22;315;48.738;9.126;2023-01-24T14:45:26;3.80;99.90
666;DHT22;315;48.738;9.126;2023-01-24T14:47:52;3.70;99.90
666;DHT22;315;48.738;9.126;2023-01-24T14:50:27;3.70;99.90
666;DHT22;315;48.738;9.126;2023-01-24T14:52:54;3.80;99.90
666;DHT22;315;48.738;9.126;2023-01-24T14:57:52;3.80;99.90
666;DHT22;315;48.738;9.126;2023-01-24T15:00:19;3.80;99.90
666;DHT22;315;48.738;9.126;2023-01-24T15:02:55;3.90;99.90
666;DHT22;315;48.738;9.126;2023-01-24T15:05:26;3.80;99.90
666;DHT22;315;48.738;9.126;2023-01-24T15:07:53;3.80;99.90
666;DHT22;315;48.738;9.126;2023-01-24T15:10:27;3.80;99.90
666;DHT22;315;48.738;9.126;2023-01-24T15:12:55;3.80;99.90
666;DHT22;315;48.738;9.126;2023-01-24T15:15:22;3.90;99.90
666;DHT22;315;48.738;9.126;2023-01-24T15:17:49;3.90;99.90
666;DHT22;315;48.738;9.126;2023-01-24T15:20:22;3.90;99.90
666;DHT22;315;48.738;9.126;2023-01-24T15:22:49;3.90;99.90
666;DHT22;315;48.738;9.126;2023-01-24T15:25:32;3.90;99.90
666;DHT22;315;48.738;9.126;2023-01-24T15:28:18;3.80;99.90
666;DHT22;315;48.738;9.126;2023-01-24T15:30:53;3.80;99.90
666;DHT22;315;48.738;9.126;2023-01-24T15:33:19;3.80;99.90
666;DHT22;315;48.738;9.126;2023-01-24T15:35:46;3.70;99.90
666;DHT22;315;48.738;9.126;2023-01-24T15:38:28;3.60;99.90
666;DHT22;315;48.738;9.126;2023-01-24T15:41:13;3.70;99.90
666;DHT22;315;48.738;9.126;2023-01-24T15:43:41;3.70;99.90
666;DHT22;315;48.738;9.126;2023-01-24T15:46:38;3.70;99.90
666;DHT22;315;48.738;9.126;2023-01-24T15:50:13;3.70;99.90
666;DHT22;315;48.738;9.126;2023-01-24T15:52:17;3.70;99.90
666;DHT22;315;48.738;9.126;2023-01-24T15:54:55;3.80;99.90
666;DHT22;315;48.738;9.126;2023-01-24T15:57:25;3.70;99.90
666;DHT22;315;48.738;9.126;2023-01-24T15:59:57;3.70;99.90
666;DHT22;315;48.738;9.126;2023-01-24T16:02:24;3.80;99.90
666;DHT22;315;48.738;9.126;2023-01-24T16:04:49;3.80;99.90
666;DHT22;315;48.738;9.126;2023-01-24T16:07:16;3.80;99.90
666;DHT22;315;48.738;9.126;2023-01-24T16:09:44;3.70;99.90
666;DHT22;315;48.738;9.126;2023-01-24T16:12:13;3.70;99.90
666;DHT22;315;48.738;9.126;2023-01-24T16:14:48;3.80;99.90
666;DHT22;315;48.738;9.126;2023-01-24T16:17:16;3.70;99.90
666;DHT22;315;48.738;9.126;2023-01-24T16:19:43;3.70;99.90
666;DHT22;315;48.738;9.126;2023-01-24T16:22:10;3.70;99.90
666;DHT22;315;48.738;9.126;2023-01-24T16:24:36;3.60;99.90
666;DHT22;315;48.738;9.126;2023-01-24T16:27:03;3.50;99.90
666;DHT22;315;48.738;9.126;2023-01-24T16:29:30;3.50;99.90
666;DHT22;315;48.738;9.126;2023-01-24T16:31:55;3.50;99.90
666;DHT22;315;48.738;9.126;2023-01-24T16:34:21;3.50;99.90
666;DHT22;315;48.738;9.126;2023-01-24T16:36:47;3.50;99.90
666;DHT22;315;48.738;9.126;2023-01-24T16:39:19;3.50;99.90
666;DHT22;315;48.738;9.126;2023-01-24T16:41:49;3.40;99.90
666;DHT22;315;48.738;9.126;2023-01-24T16:44:15;3.40;99.90
666;DHT22;315;48.738;9.126;2023-01-24T16:46:47;3.40;99.90
666;DHT22;315;48.738;9.126;2023-01-24T16:49:13;3.40;99.90
666;DHT22;315;48.738;9.126;2023-01-24T16:51:38;3.40;99.90
666;DHT22;315;48.738;9.126;2023-01-24T16:54:04;3.40;99.90
666;DHT22;315;48.738;9.126;2023-01-24T16:56:29;3.40;99.90
666;DHT22;315;48.738;9.126;2023-01-24T16:58:55;3.40;99.90
666;DHT22;315;48.738;9.126;2023-01-24T17:01:21;3.50;99.90
666;DHT22;315;48.738;9.126;2023-01-24T17:03:50;3.50;99.90
666;DHT22;315;48.738;9.126;2023-01-24T17:06:15;3.50;99.90
666;DHT22;315;48.738;9.126;2023-01-24T17:08:41;3.40;99.90
666;DHT22;315;48.738;9.126;2023-01-24T17:11:09;3.30;99.90
666;DHT22;315;48.738;9.126;2023-01-24T17:13:35;3.30;99.90
666;DHT22;315;48.738;9.126;2023-01-24T17:16:06;3.30;99.90
666;DHT22;315;48.738;9.126;2023-01-24T17:18:33;3.30;99.90
666;DHT22;315;48.738;9.126;2023-01-24T17:21:01;3.30;99.90
666;DHT22;315;48.738;9.126;2023-01-24T17:23:27;3.30;99.90
666;DHT22;315;48.738;9.126;2023-01-24T17:26:00;3.30;99.90
666;DHT22;315;48.738;9.126;2023-01-24T17:28:25;3.30;99.90
666;DHT22;315;48.738;9.126;2023-01-24T17:30:51;3.30;99.90
666;DHT22;315;48.738;9.126;2023-01-24T17:33:16;3.20;99.90
666;DHT22;315;48.738;9.126;2023-01-24T17:35:42;3.20;99.90
666;DHT22;315;48.738;9.126;2023-01-24T17:38:07;3.20;99.90
666;DHT22;315;48.738;9.126;2023-01-24T17:40:35;3.10;99.90
666;DHT22;315;48.738;9.126;2023-01-24T17:43:00;3.20;99.90
666;DHT22;315;48.738;9.126;2023-01-24T17:45:26;3.20;99.90
666;DHT22;315;48.738;9.126;2023-01-24T17:47:51;3.20;99.90
666;DHT22;315;48.738;9.126;2023-01-24T17:50:18;3.10;99.90
666;DHT22;315;48.738;9.126;2023-01-24T17:52:43;3.10;99.90
666;DHT22;315;48.738;9.126;2023-01-24T17:55:09;3.10;99.90
666;DHT22;315;48.738;9.126;2023-01-24T17:57:34;3.10;99.90
666;DHT22;315;48.738;9.126;2023-01-24T18:00:00;3.10;99.90
666;DHT22;315;48.738;9.126;2023-01-24T18:02:25;3.10;99.90
666;DHT22;315;48.738;9.126;2023-01-24T18:04:51;3.10;99.90
666;DHT22;315;48.738;9.126;2023-01-24T18:07:16;3.10;99.90
666;DHT22;315;48.738;9.126;2023-01-24T18:09:42;3.10;99.90
666;DHT22;315;48.738;9.126;2023-01-24T18:12:07;3.10;99.90
666;DHT22;315;48.738;9.126;2023-01-24T18:14:33;3.10;99.90
666;DHT22;315;48.738;9.126;2023-01-24T18:16:58;3.00;99.90
666;DHT22;315;48.738;9.126;2023-01-24T18:19:24;3.10;99.90
666;DHT22;315;48.738;9.126;2023-01-24T18:21:49;3.10;99.90
666;DHT22;315;48.738;9.126;2023-01-24T18:24:15;3.10;99.90
666;DHT22;315;48.738;9.126;2023-01-24T18:26:40;3.10;99.90
666;DHT22;315;48.738;9.126;2023-01-24T18:29:06;3.10;99.90
666;DHT22;315;48.738;9.126;2023-01-24T18:31:32;3.10;99.90
666;DHT22;315;48.738;9.126;2023-01-24T18:33:59;3.10;99.90
666;DHT22;315;48.738;9.126;2023-01-24T18:36:25;3.10;99.90
666;DHT22;315;48.738;9.126;2023-01-24T18:38:52;3.10;99.90
666;DHT22;315;48.738;9.126;2023-01-24T18:41:18;3.00;99.90
666;DHT22;315;48.738;9.126;2023-01-24T18:43:44;3.00;99.90
666;DHT22;315;48.738;9.126;2023-01-24T18:46:11;3.00;99.90
666;DHT22;315;48.738;9.126;2023-01-24T18:48:39;3.10;99.90
666;DHT22;315;48.738;9.126;2023-01-24T18:53:34;3.10;99.90
666;DHT22;315;48.738;9.126;2023-01-24T18:56:01;3.00;99.90
666;DHT22;315;48.738;9.126;2023-01-24T18:58:27;3.00;99.90
666;DHT22;315;48.738;9.126;2023-01-24T19:00:54;3.00;99.90
666;DHT22;315;48.738;9.126;2023-01-24T19:03:20;3.10;99.90
666;DHT22;315;48.738;9.126;2023-01-24T19:05:45;3.10;99.90
666;DHT22;315;48.738;9.126;2023-01-24T19:08:11;3.10;99.90